sensor_id;sensor_type;location;lat;lon;timestamp;temperature;humidity
5901;DHT22;2976;49.764;9.796;2023-12-22T00:00:30;3.40;99.90
5901;DHT22;2976;49.764;9.796;2023-12-22T00:02:55;3.30;99.90
5901;DHT22;2976;49.764;9.796;2023-12-22T00:05:21;3.30;99.90
5901;DHT22;2976;49.764;9.796;2023-12-22T00:07:46;3.30;99.90
5901;DHT22;2976;49.764;9.796;2023-12-22T00:10:12;3.30;99.90
5901;DHT22;2976;49.764;9.796;2023-12-22T00:12:37;3.30;99.90
5901;DHT22;2976;49.764;9.796;2023-12-22T00:15:06;3.30;99.90
5901;DHT22;2976;49.764;9.796;2023-12-22T00:17:32;3.30;99.90
5901;DHT22;2976;49.764;9.796;2023-12-22T00:19:57;3.30;99.90
5901;DHT22;2976;49.764;9.796;2023-12-22T00:22:25;3.40;99.90
5901;DHT22;2976;49.764;9.796;2023-12-22T00:24:51;3.50;99.90
5901;DHT22;2976;49.764;9.796;2023-12-22T00:27:16;3.50;99.90
5901;DHT22;2976;49.764;9.796;2023-12-22T00:29:42;3.50;99.90
5901;DHT22;2976;49.764;9.796;2023-12-22T00:32:08;3.50;99.90
5901;DHT22;2976;49.764;9.796;2023-12-22T00:34:35;3.50;99.90
5901;DHT22;2976;49.764;9.796;2023-12-22T00:37:00;3.50;99.90
5901;DHT22;2976;49.764;9.796;2023-12-22T00:39:26;3.60;99.90
5901;DHT22;2976;49.764;9.796;2023-12-22T00:41:52;3.60;99.90
5901;DHT22;2976;49.764;9.796;2023-12-22T00:44:17;3.70;99.90
5901;DHT22;2976;49.764;9.796;2023-12-22T00:46:43;3.70;99.90
5901;DHT22;2976;49.764;9.796;2023-12-22T00:49:08;3.70;99.90
5901;DHT22;2976;49.764;9.796;2023-12-22T00:51:34;3.70;99.90
5901;DHT22;2976;49.764;9.796;2023-12-22T00:53:59;3.80;99.90
5901;DHT22;2976;49.764;9.796;2023-12-22T00:56:25;3.80;99.90
5901;DHT22;2976;49.764;9.796;2023-12-22T00:58:50;3.80;99.90
5901;DHT22;2976;49.764;9.796;2023-12-22T01:01:16;3.90;99.90
5901;DHT22;2976;49.764;9.796;2023-12-22T01:03:41;3.90;99.90
5901;DHT22;2976;49.764;9.796;2023-12-22T01:06:07;3.80;99.90
5901;DHT22;2976;49.764;9.796;2023-12-22T01:08:32;3.80;99.90
5901;DHT22;2976;49.764;9.796;2023-12-22T01:10:58;3.80;99.90
5901;DHT22;2976;49.764;9.796;2023-12-22T01:13:23;3.90;99.90
5901;DHT22;2976;49.764;9.796;2023-12-22T01:15:49;3.90;99.90
5901;DHT22;2976;49.764;9.796;2023-12-22T01:18:15;3.80;99.90
5901;DHT22;2976;49.764;9.796;2023-12-22T01:20:40;3.80;99.90
5901;DHT22;2976;49.764;9.796;2023-12-22T01:23:06;3.80;99.90
5901;DHT22;2976;49.764;9.796;2023-12-22T01:25:31;3.80;99.90
5901;DHT22;2976;49.764;9.796;2023-12-22T01:27:57;3.80;99.90
5901;DHT22;2976;49.764;9.796;2023-12-22T01:30:22;3.90;99.90
5901;DHT22;2976;49.764;9.796;2023-12-22T01:32:48;3.90;99.90
5901;DHT22;2976;49.764;9.796;2023-12-22T01:35:13;3.80;99.90
5901;DHT22;2976;49.764;9.796;2023-12-22T01:37:39;3.90;99.90
5901;DHT22;2976;49.764;9.796;2023-12-22T01:40:05;3.90;99.90
5901;DHT22;2976;49.764;9.796;2023-12-22T01:42:31;3.90;99.90
5901;DHT22;2976;49.764;9.796;2023-12-22T01:44:57;3.90;99.90
5901;DHT22;2976;49.764;9.796;2023-12-22T01:47:22;4.00;99.90
5901;DHT22;2976;49.764;9.796;2023-12-22T01:49:48;4.00;99.90
5901;DHT22;2976;49.764;9.796;2023-12-22T01:52:14;4.00;99.90
5901;DHT22;2976;49.764;9.796;2023-12-22T01:54:40;4.00;99.90
5901;DHT22;2976;49.764;9.796;2023-12-22T01:57:06;4.00;99.90
5901;DHT22;2976;49.764;9.796;2023-12-22T01:59:33;4.00;99.90
5901;DHT22;2976;49.764;9.796;2023-12-22T02:02:01;4.10;99.90
5901;DHT22;2976;49.764;9.796;2023-12-22T02:04:27;4.10;99.90
5901;DHT22;2976;49.764;9.796;2023-12-22T02:06:55;4.10;99.90
5901;DHT22;2976;49.764;9.796;2023-12-22T02:09:22;4.10;99.90
5901;DHT22;2976;49.764;9.796;2023-12-22T02:11:47;4.00;99.90
5901;DHT22;2976;49.764;9.796;2023-12-22T02:14:13;3.90;99.90
5901;DHT22;2976;49.764;9.796;2023-12-22T02:17:02;3.80;99.90
5901;DHT22;2976;49.764;9.796;2023-12-22T02:19:41;3.60;99.90
5901;DHT22;2976;49.764;9.796;2023-12-22T02:22:08;3.50;99.90
5901;DHT22;2976;49.764;9.796;2023-12-22T02:24:34;3.30;99.90
5901;DHT22;2976;49.764;9.796;2023-12-22T02:27:04;3.30;99.90
5901;DHT22;2976;49.764;9.796;2023-12-22T02:29:37;3.10;99.90
5901;DHT22;2976;49.764;9.796;2023-12-22T02:32:07;3.00;99.90
5901;DHT22;2976;49.764;9.796;2023-12-22T02:34:36;2.90;99.90
5901;DHT22;2976;49.764;9.796;2023-12-22T02:37:07;2.80;99.90
5901;DHT22;2976;49.764;9.796;2023-12-22T02:39:34;2.80;99.90
5901;DHT22;2976;49.764;9.796;2023-12-22T02:42:00;2.70;99.90
5901;DHT22;2976;49.764;9.796;2023-12-22T02:44:27;2.60;99.90
5901;DHT22;2976;49.764;9.796;2023-12-22T02:46:53;2.60;99.90
5901;DHT22;2976;49.764;9.796;2023-12-22T02:49:18;2.60;99.90
5901;DHT22;2976;49.764;9.796;2023-12-22T02:51:44;2.60;99.90
5901;DHT22;2976;49.764;9.796;2023-12-22T02:54:10;2.60;99.90
5901;DHT22;2976;49.764;9.796;2023-12-22T02:56:36;2.70;99.90
5901;DHT22;2976;49.764;9.796;2023-12-22T02:59:01;2.80;99.90
5901;DHT22;2976;49.764;9.796;2023-12-22T03:01:27;2.80;99.90
5901;DHT22;2976;49.764;9.796;2023-12-22T03:03:52;2.80;99.90
5901;DHT22;2976;49.764;9.796;2023-12-22T03:06:18;2.80;99.90
5901;DHT22;2976;49.764;9.796;2023-12-22T03:08:43;2.80;99.90
5901;DHT22;2976;49.764;9.796;2023-12-22T03:11:09;2.80;99.90
5901;DHT22;2976;49.764;9.796;2023-12-22T03:13:34;2.80;99.90
5901;DHT22;2976;49.764;9.796;2023-12-22T03:16:00;2.80;99.90
5901;DHT22;2976;49.764;9.796;2023-12-22T03:18:25;2.80;99.90
5901;DHT22;2976;49.764;9.796;2023-12-22T03:20:51;2.70;99.90
5901;DHT22;2976;49.764;9.796;2023-12-22T03:23:16;2.70;99.90
5901;DHT22;2976;49.764;9.796;2023-12-22T03:25:42;2.80;99.90
5901;DHT22;2976;49.764;9.796;2023-12-22T03:28:07;2.80;99.90
5901;DHT22;2976;49.764;9.796;2023-12-22T03:30:33;2.80;99.90
5901;DHT22;2976;49.764;9.796;2023-12-22T03:33:01;2.80;99.90
5901;DHT22;2976;49.764;9.796;2023-12-22T03:35:26;2.80;99.90
5901;DHT22;2976;49.764;9.796;2023-12-22T03:37:52;2.80;99.90
5901;DHT22;2976;49.764;9.796;2023-12-22T03:40:17;2.80;99.90
5901;DHT22;2976;49.764;9.796;2023-12-22T03:42:43;2.70;99.90
5901;DHT22;2976;49.764;9.796;2023-12-22T03:45:09;2.70;99.90
5901;DHT22;2976;49.764;9.796;2023-12-22T03:47:34;2.70;99.90
5901;DHT22;2976;49.764;9.796;2023-12-22T03:50:00;2.60;99.90
5901;DHT22;2976;49.764;9.796;2023-12-22T03:52:25;2.60;99.90
5901;DHT22;2976;49.764;9.796;2023-12-22T03:54:51;2.60;99.90
5901;DHT22;2976;49.764;9.796;2023-12-22T03:57:17;2.60;99.90
5901;DHT22;2976;49.764;9.796;2023-12-22T03:59:42;2.60;99.90
5901;DHT22;2976;49.764;9.796;2023-12-22T04:02:08;2.60;99.90
5901;DHT22;2976;49.764;9.796;2023-12-22T04:04:38;2.60;99.90
5901;DHT22;2976;49.764;9.796;2023-12-22T04:07:03;2.60;99.90
5901;DHT22;2976;49.764;9.796;2023-12-22T04:09:29;2.50;99.90
5901;DHT22;2976;49.764;9.796;2023-12-22T04:11:54;2.60;99.90
5901;DHT22;2976;49.764;9.796;2023-12-22T04:14:20;2.60;99.90
5901;DHT22;2976;49.764;9.796;2023-12-22T04:16:45;2.60;99.90
5901;DHT22;2976;49.764;9.796;2023-12-22T04:19:11;2.60;99.90
5901;DHT22;2976;49.764;9.796;2023-12-22T04:21:36;2.60;99.90
5901;DHT22;2976;49.764;9.796;2023-12-22T04:24:02;2.60;99.90
5901;DHT22;2976;49.764;9.796;2023-12-22T04:26:28;2.60;99.90
5901;DHT22;2976;49.764;9.796;2023-12-22T04:28:53;2.60;99.90
5901;DHT22;2976;49.764;9.796;2023-12-22T04:31:19;2.60;99.90
5901;DHT22;2976;49.764;9.796;2023-12-22T04:33:44;2.60;99.90
5901;DHT22;2976;49.764;9.796;2023-12-22T04:36:10;2.60;99.90
5901;DHT22;2976;49.764;9.796;2023-12-22T04:38:36;2.60;99.90
5901;DHT22;2976;49.764;9.796;2023-12-22T04:41:01;2.70;99.90
5901;DHT22;2976;49.764;9.796;2023-12-22T04:43:27;2.60;99.90
5901;DHT22;2976;49.764;9.796;2023-12-22T04:45:52;2.70;99.90
5901;DHT22;2976;49.764;9.796;2023-12-22T04:48:18;2.70;99.90
5901;DHT22;2976;49.764;9.796;2023-12-22T04:50:43;2.70;99.90
5901;DHT22;2976;49.764;9.796;2023-12-22T04:53:09;2.70;99.90
5901;DHT22;2976;49.764;9.796;2023-12-22T04:55:35;2.70;99.90
5901;DHT22;2976;49.764;9.796;2023-12-22T04:58:00;2.70;99.90
5901;DHT22;2976;49.764;9.796;2023-12-22T05:00:26;2.80;99.90
5901;DHT22;2976;49.764;9.796;2023-12-22T05:02:51;2.80;99.90
5901;DHT22;2976;49.764;9.796;2023-12-22T05:05:17;2.90;99.90
5901;DHT22;2976;49.764;9.796;2023-12-22T05:07:43;2.90;99.90
5901;DHT22;2976;49.764;9.796;2023-12-22T05:10:09;3.00;99.90
5901;DHT22;2976;49.764;9.796;2023-12-22T05:12:34;3.10;99.90
5901;DHT22;2976;49.764;9.796;2023-12-22T05:15:00;3.10;99.90
5901;DHT22;2976;49.764;9.796;2023-12-22T05:17:25;3.20;99.90
5901;DHT22;2976;49.764;9.796;2023-12-22T05:19:51;3.20;99.90
5901;DHT22;2976;49.764;9.796;2023-12-22T05:22:16;3.20;99.90
5901;DHT22;2976;49.764;9.796;2023-12-22T05:24:42;3.30;99.90
5901;DHT22;2976;49.764;9.796;2023-12-22T05:27:07;3.30;99.90
5901;DHT22;2976;49.764;9.796;2023-12-22T05:29:33;3.40;99.90
5901;DHT22;2976;49.764;9.796;2023-12-22T05:31:59;3.40;99.90
5901;DHT22;2976;49.764;9.796;2023-12-22T05:34:25;3.40;99.90
5901;DHT22;2976;49.764;9.796;2023-12-22T05:36:50;3.40;99.90
5901;DHT22;2976;49.764;9.796;2023-12-22T05:39:16;3.50;99.90
5901;DHT22;2976;49.764;9.796;2023-12-22T05:41:41;3.50;99.90
5901;DHT22;2976;49.764;9.796;2023-12-22T05:44:07;3.50;99.90
5901;DHT22;2976;49.764;9.796;2023-12-22T05:46:37;3.50;99.90
5901;DHT22;2976;49.764;9.796;2023-12-22T05:49:03;3.50;99.90
5901;DHT22;2976;49.764;9.796;2023-12-22T05:51:36;3.50;99.90
5901;DHT22;2976;49.764;9.796;2023-12-22T05:54:02;3.60;99.90
5901;DHT22;2976;49.764;9.796;2023-12-22T05:56:27;3.60;99.90
5901;DHT22;2976;49.764;9.796;2023-12-22T05:58:53;3.60;99.90
5901;DHT22;2976;49.764;9.796;2023-12-22T06:01:20;3.60;99.90
5901;DHT22;2976;49.764;9.796;2023-12-22T06:03:48;3.70;99.90
5901;DHT22;2976;49.764;9.796;2023-12-22T06:06:14;3.70;99.90
5901;DHT22;2976;49.764;9.796;2023-12-22T06:08:40;3.70;99.90
5901;DHT22;2976;49.764;9.796;2023-12-22T06:11:05;3.80;99.90
5901;DHT22;2976;49.764;9.796;2023-12-22T06:13:31;3.70;99.90
5901;DHT22;2976;49.764;9.796;2023-12-22T06:15:57;3.80;99.90
5901;DHT22;2976;49.764;9.796;2023-12-22T06:18:22;3.80;99.90
5901;DHT22;2976;49.764;9.796;2023-12-22T06:20:48;3.80;99.90
5901;DHT22;2976;49.764;9.796;2023-12-22T06:23:13;3.80;99.90
5901;DHT22;2976;49.764;9.796;2023-12-22T06:25:39;3.90;99.90
5901;DHT22;2976;49.764;9.796;2023-12-22T06:28:05;3.90;99.90
5901;DHT22;2976;49.764;9.796;2023-12-22T06:30:30;3.90;99.90
5901;DHT22;2976;49.764;9.796;2023-12-22T06:32:56;3.90;99.90
5901;DHT22;2976;49.764;9.796;2023-12-22T06:35:22;3.90;99.90
5901;DHT22;2976;49.764;9.796;2023-12-22T06:37:51;3.80;99.90
5901;DHT22;2976;49.764;9.796;2023-12-22T06:40:17;3.70;99.90
5901;DHT22;2976;49.764;9.796;2023-12-22T06:42:42;3.70;99.90
5901;DHT22;2976;49.764;9.796;2023-12-22T06:45:08;3.70;99.90
5901;DHT22;2976;49.764;9.796;2023-12-22T06:47:36;3.70;99.90
5901;DHT22;2976;49.764;9.796;2023-12-22T06:50:01;3.70;99.90
5901;DHT22;2976;49.764;9.796;2023-12-22T06:52:27;3.70;99.90
5901;DHT22;2976;49.764;9.796;2023-12-22T06:54:52;3.70;99.90
5901;DHT22;2976;49.764;9.796;2023-12-22T06:57:18;3.70;99.90
5901;DHT22;2976;49.764;9.796;2023-12-22T06:59:44;3.80;99.90
5901;DHT22;2976;49.764;9.796;2023-12-22T07:02:09;3.80;99.90
5901;DHT22;2976;49.764;9.796;2023-12-22T07:05:29;3.90;99.90
5901;DHT22;2976;49.764;9.796;2023-12-22T07:07:49;4.00;99.90
5901;DHT22;2976;49.764;9.796;2023-12-22T07:10:16;4.10;99.90
5901;DHT22;2976;49.764;9.796;2023-12-22T07:12:41;4.30;99.90
5901;DHT22;2976;49.764;9.796;2023-12-22T07:15:07;4.40;99.90
5901;DHT22;2976;49.764;9.796;2023-12-22T07:17:33;4.50;99.90
5901;DHT22;2976;49.764;9.796;2023-12-22T07:19:59;4.60;99.90
5901;DHT22;2976;49.764;9.796;2023-12-22T07:22:24;4.60;99.90
5901;DHT22;2976;49.764;9.796;2023-12-22T07:24:50;4.70;99.90
5901;DHT22;2976;49.764;9.796;2023-12-22T07:27:18;4.70;99.90
5901;DHT22;2976;49.764;9.796;2023-12-22T07:29:43;4.60;99.90
5901;DHT22;2976;49.764;9.796;2023-12-22T07:32:09;4.60;99.90
5901;DHT22;2976;49.764;9.796;2023-12-22T07:34:34;4.50;99.90
5901;DHT22;2976;49.764;9.796;2023-12-22T07:37:01;4.50;99.90
5901;DHT22;2976;49.764;9.796;2023-12-22T07:39:26;4.40;99.90
5901;DHT22;2976;49.764;9.796;2023-12-22T07:41:52;4.40;99.90
5901;DHT22;2976;49.764;9.796;2023-12-22T07:44:17;4.30;99.90
5901;DHT22;2976;49.764;9.796;2023-12-22T07:46:43;4.30;99.90
5901;DHT22;2976;49.764;9.796;2023-12-22T07:49:08;4.30;99.90
5901;DHT22;2976;49.764;9.796;2023-12-22T07:51:34;4.40;99.90
5901;DHT22;2976;49.764;9.796;2023-12-22T07:53:59;4.40;99.90
5901;DHT22;2976;49.764;9.796;2023-12-22T07:56:25;4.40;99.90
5901;DHT22;2976;49.764;9.796;2023-12-22T07:58:50;4.50;99.90
5901;DHT22;2976;49.764;9.796;2023-12-22T08:01:16;4.50;99.90
5901;DHT22;2976;49.764;9.796;2023-12-22T08:03:41;4.60;99.90
5901;DHT22;2976;49.764;9.796;2023-12-22T08:06:07;4.70;99.90
5901;DHT22;2976;49.764;9.796;2023-12-22T08:08:33;4.80;99.90
5901;DHT22;2976;49.764;9.796;2023-12-22T08:10:59;5.10;99.90
5901;DHT22;2976;49.764;9.796;2023-12-22T08:13:25;5.20;99.90
5901;DHT22;2976;49.764;9.796;2023-12-22T08:15:51;5.40;99.90
5901;DHT22;2976;49.764;9.796;2023-12-22T08:18:16;5.30;99.90
5901;DHT22;2976;49.764;9.796;2023-12-22T08:20:42;5.30;99.90
5901;DHT22;2976;49.764;9.796;2023-12-22T08:23:08;5.10;99.90
5901;DHT22;2976;49.764;9.796;2023-12-22T08:25:33;5.20;99.90
5901;DHT22;2976;49.764;9.796;2023-12-22T08:27:59;5.20;99.90
5901;DHT22;2976;49.764;9.796;2023-12-22T08:30:24;5.40;99.90
5901;DHT22;2976;49.764;9.796;2023-12-22T08:32:50;5.50;99.90
5901;DHT22;2976;49.764;9.796;2023-12-22T08:35:16;5.60;99.90
5901;DHT22;2976;49.764;9.796;2023-12-22T08:37:42;5.60;99.90
5901;DHT22;2976;49.764;9.796;2023-12-22T08:40:08;5.70;92.90
5901;DHT22;2976;49.764;9.796;2023-12-22T08:42:33;5.70;87.20
5901;DHT22;2976;49.764;9.796;2023-12-22T08:44:59;5.80;94.90
5901;DHT22;2976;49.764;9.796;2023-12-22T08:47:24;5.80;59.00
5901;DHT22;2976;49.764;9.796;2023-12-22T08:49:51;5.70;98.60
5901;DHT22;2976;49.764;9.796;2023-12-22T08:52:16;5.60;99.90
5901;DHT22;2976;49.764;9.796;2023-12-22T08:54:42;5.30;99.90
5901;DHT22;2976;49.764;9.796;2023-12-22T08:57:07;5.20;99.90
5901;DHT22;2976;49.764;9.796;2023-12-22T08:59:34;5.20;99.90
5901;DHT22;2976;49.764;9.796;2023-12-22T09:01:59;5.10;99.90
5901;DHT22;2976;49.764;9.796;2023-12-22T09:04:25;5.10;99.90
5901;DHT22;2976;49.764;9.796;2023-12-22T09:06:51;5.20;99.90
5901;DHT22;2976;49.764;9.796;2023-12-22T09:09:17;5.30;99.90
5901;DHT22;2976;49.764;9.796;2023-12-22T09:11:43;5.40;99.90
5901;DHT22;2976;49.764;9.796;2023-12-22T09:14:10;5.40;99.90
5901;DHT22;2976;49.764;9.796;2023-12-22T09:16:36;5.50;99.90
5901;DHT22;2976;49.764;9.796;2023-12-22T09:19:02;5.60;99.90
5901;DHT22;2976;49.764;9.796;2023-12-22T09:21:28;5.60;99.90
5901;DHT22;2976;49.764;9.796;2023-12-22T09:23:54;5.70;99.90
5901;DHT22;2976;49.764;9.796;2023-12-22T09:26:20;5.80;99.90
5901;DHT22;2976;49.764;9.796;2023-12-22T09:28:46;5.80;99.90
5901;DHT22;2976;49.764;9.796;2023-12-22T09:31:12;5.80;99.90
5901;DHT22;2976;49.764;9.796;2023-12-22T09:33:41;5.80;99.90
5901;DHT22;2976;49.764;9.796;2023-12-22T09:36:07;5.80;99.90
5901;DHT22;2976;49.764;9.796;2023-12-22T09:38:33;5.80;99.90
5901;DHT22;2976;49.764;9.796;2023-12-22T09:40:58;5.80;99.90
5901;DHT22;2976;49.764;9.796;2023-12-22T09:43:25;5.80;99.90
5901;DHT22;2976;49.764;9.796;2023-12-22T09:45:51;5.80;99.90
5901;DHT22;2976;49.764;9.796;2023-12-22T09:48:17;5.70;99.90
5901;DHT22;2976;49.764;9.796;2023-12-22T09:50:44;5.70;99.90
5901;DHT22;2976;49.764;9.796;2023-12-22T09:53:13;5.60;99.90
5901;DHT22;2976;49.764;9.796;2023-12-22T09:55:41;5.60;99.90
5901;DHT22;2976;49.764;9.796;2023-12-22T09:58:08;5.60;99.90
5901;DHT22;2976;49.764;9.796;2023-12-22T10:00:36;5.60;99.90
5901;DHT22;2976;49.764;9.796;2023-12-22T10:03:06;5.50;99.90
5901;DHT22;2976;49.764;9.796;2023-12-22T10:05:32;5.50;99.90
5901;DHT22;2976;49.764;9.796;2023-12-22T10:07:59;5.50;99.90
5901;DHT22;2976;49.764;9.796;2023-12-22T10:10:27;5.40;99.90
5901;DHT22;2976;49.764;9.796;2023-12-22T10:12:54;5.40;99.90
5901;DHT22;2976;49.764;9.796;2023-12-22T10:15:21;5.40;99.90
5901;DHT22;2976;49.764;9.796;2023-12-22T10:17:50;5.40;99.90
5901;DHT22;2976;49.764;9.796;2023-12-22T10:20:16;5.30;99.90
5901;DHT22;2976;49.764;9.796;2023-12-22T10:22:41;5.20;99.90
5901;DHT22;2976;49.764;9.796;2023-12-22T10:25:08;5.20;99.90
5901;DHT22;2976;49.764;9.796;2023-12-22T10:27:35;5.10;99.90
5901;DHT22;2976;49.764;9.796;2023-12-22T10:30:02;5.10;99.90
5901;DHT22;2976;49.764;9.796;2023-12-22T10:32:28;5.00;99.90
5901;DHT22;2976;49.764;9.796;2023-12-22T10:34:54;5.10;99.90
5901;DHT22;2976;49.764;9.796;2023-12-22T10:37:21;5.10;99.90
5901;DHT22;2976;49.764;9.796;2023-12-22T10:39:46;5.10;99.90
5901;DHT22;2976;49.764;9.796;2023-12-22T10:42:14;5.10;99.90
5901;DHT22;2976;49.764;9.796;2023-12-22T10:44:40;5.20;99.90
5901;DHT22;2976;49.764;9.796;2023-12-22T10:47:09;5.20;99.90
5901;DHT22;2976;49.764;9.796;2023-12-22T10:49:36;5.20;99.90
5901;DHT22;2976;49.764;9.796;2023-12-22T10:52:02;5.30;99.90
5901;DHT22;2976;49.764;9.796;2023-12-22T10:54:29;5.40;99.90
5901;DHT22;2976;49.764;9.796;2023-12-22T10:56:59;5.40;99.90
5901;DHT22;2976;49.764;9.796;2023-12-22T10:59:29;5.50;99.90
5901;DHT22;2976;49.764;9.796;2023-12-22T11:01:57;5.60;99.90
5901;DHT22;2976;49.764;9.796;2023-12-22T11:04:29;5.70;99.90
5901;DHT22;2976;49.764;9.796;2023-12-22T11:06:57;5.80;99.90
5901;DHT22;2976;49.764;9.796;2023-12-22T11:09:23;5.90;99.90
5901;DHT22;2976;49.764;9.796;2023-12-22T11:11:51;5.90;99.90
5901;DHT22;2976;49.764;9.796;2023-12-22T11:14:17;5.90;99.90
5901;DHT22;2976;49.764;9.796;2023-12-22T11:16:43;5.90;99.90
5901;DHT22;2976;49.764;9.796;2023-12-22T11:19:14;6.00;99.90
5901;DHT22;2976;49.764;9.796;2023-12-22T11:21:40;6.00;99.90
5901;DHT22;2976;49.764;9.796;2023-12-22T11:24:07;6.10;99.90
5901;DHT22;2976;49.764;9.796;2023-12-22T11:26:33;6.10;99.90
5901;DHT22;2976;49.764;9.796;2023-12-22T11:28:59;6.10;99.90
5901;DHT22;2976;49.764;9.796;2023-12-22T11:31:27;6.00;99.90
5901;DHT22;2976;49.764;9.796;2023-12-22T11:33:54;6.00;99.90
5901;DHT22;2976;49.764;9.796;2023-12-22T11:36:23;5.90;99.90
5901;DHT22;2976;49.764;9.796;2023-12-22T11:38:48;5.90;99.90
5901;DHT22;2976;49.764;9.796;2023-12-22T11:41:19;5.90;99.90
5901;DHT22;2976;49.764;9.796;2023-12-22T11:43:47;5.80;99.90
5901;DHT22;2976;49.764;9.796;2023-12-22T11:46:13;5.90;99.90
5901;DHT22;2976;49.764;9.796;2023-12-22T11:48:47;6.00;99.90
5901;DHT22;2976;49.764;9.796;2023-12-22T11:51:13;6.00;99.90
5901;DHT22;2976;49.764;9.796;2023-12-22T11:53:42;6.10;99.90
5901;DHT22;2976;49.764;9.796;2023-12-22T11:56:08;6.20;99.90
5901;DHT22;2976;49.764;9.796;2023-12-22T12:01:01;6.30;99.90
5901;DHT22;2976;49.764;9.796;2023-12-22T12:03:30;6.30;99.90
5901;DHT22;2976;49.764;9.796;2023-12-22T12:09:05;6.60;99.90
5901;DHT22;2976;49.764;9.796;2023-12-22T12:14:29;6.70;99.90
5901;DHT22;2976;49.764;9.796;2023-12-22T12:17:06;6.70;99.90
5901;DHT22;2976;49.764;9.796;2023-12-22T12:19:34;6.80;99.90
5901;DHT22;2976;49.764;9.796;2023-12-22T12:22:00;6.70;99.90
5901;DHT22;2976;49.764;9.796;2023-12-22T12:24:27;6.80;99.90
5901;DHT22;2976;49.764;9.796;2023-12-22T12:26:52;6.80;99.90
5901;DHT22;2976;49.764;9.796;2023-12-22T12:29:20;6.80;99.90
5901;DHT22;2976;49.764;9.796;2023-12-22T12:31:46;6.80;99.90
5901;DHT22;2976;49.764;9.796;2023-12-22T12:34:12;6.80;99.90
5901;DHT22;2976;49.764;9.796;2023-12-22T12:36:40;6.80;99.90
5901;DHT22;2976;49.764;9.796;2023-12-22T12:39:07;6.70;99.90
5901;DHT22;2976;49.764;9.796;2023-12-22T12:41:36;6.70;99.90
5901;DHT22;2976;49.764;9.796;2023-12-22T12:44:04;6.70;99.90
5901;DHT22;2976;49.764;9.796;2023-12-22T12:46:38;6.70;99.90
5901;DHT22;2976;49.764;9.796;2023-12-22T12:49:05;6.70;99.90
5901;DHT22;2976;49.764;9.796;2023-12-22T12:51:38;6.70;99.90
5901;DHT22;2976;49.764;9.796;2023-12-22T12:54:07;6.70;99.90
5901;DHT22;2976;49.764;9.796;2023-12-22T12:56:51;6.70;99.90
5901;DHT22;2976;49.764;9.796;2023-12-22T12:59:17;6.60;99.90
5901;DHT22;2976;49.764;9.796;2023-12-22T13:01:47;6.60;99.90
5901;DHT22;2976;49.764;9.796;2023-12-22T13:04:14;6.50;99.90
5901;DHT22;2976;49.764;9.796;2023-12-22T13:06:44;6.50;99.90
5901;DHT22;2976;49.764;9.796;2023-12-22T13:09:10;6.60;99.90
5901;DHT22;2976;49.764;9.796;2023-12-22T13:11:36;6.60;99.90
5901;DHT22;2976;49.764;9.796;2023-12-22T13:14:03;6.50;99.90
5901;DHT22;2976;49.764;9.796;2023-12-22T13:16:28;6.50;99.90
5901;DHT22;2976;49.764;9.796;2023-12-22T13:18:57;6.40;99.90
5901;DHT22;2976;49.764;9.796;2023-12-22T13:21:24;6.50;99.90
5901;DHT22;2976;49.764;9.796;2023-12-22T13:24:11;6.40;99.90
5901;DHT22;2976;49.764;9.796;2023-12-22T13:26:38;6.40;99.90
5901;DHT22;2976;49.764;9.796;2023-12-22T13:29:04;6.50;99.90
5901;DHT22;2976;49.764;9.796;2023-12-22T13:31:33;6.60;99.90
5901;DHT22;2976;49.764;9.796;2023-12-22T13:34:01;6.60;99.90
5901;DHT22;2976;49.764;9.796;2023-12-22T13:36:27;6.70;99.90
5901;DHT22;2976;49.764;9.796;2023-12-22T13:38:53;6.80;99.90
5901;DHT22;2976;49.764;9.796;2023-12-22T13:41:19;6.90;99.90
5901;DHT22;2976;49.764;9.796;2023-12-22T13:43:45;7.00;99.90
5901;DHT22;2976;49.764;9.796;2023-12-22T13:46:13;7.10;99.90
5901;DHT22;2976;49.764;9.796;2023-12-22T13:48:42;7.10;99.90
5901;DHT22;2976;49.764;9.796;2023-12-22T13:51:08;7.20;99.90
5901;DHT22;2976;49.764;9.796;2023-12-22T13:53:35;7.20;99.90
5901;DHT22;2976;49.764;9.796;2023-12-22T13:56:11;7.10;99.90
5901;DHT22;2976;49.764;9.796;2023-12-22T13:58:44;7.10;99.90
5901;DHT22;2976;49.764;9.796;2023-12-22T14:01:13;7.20;99.90
5901;DHT22;2976;49.764;9.796;2023-12-22T14:03:40;7.20;99.90
5901;DHT22;2976;49.764;9.796;2023-12-22T14:06:06;7.10;99.90
5901;DHT22;2976;49.764;9.796;2023-12-22T14:08:43;7.10;99.90
5901;DHT22;2976;49.764;9.796;2023-12-22T14:11:09;7.10;99.90
5901;DHT22;2976;49.764;9.796;2023-12-22T14:13:35;7.10;99.90
5901;DHT22;2976;49.764;9.796;2023-12-22T14:16:08;7.10;99.90
5901;DHT22;2976;49.764;9.796;2023-12-22T14:18:34;7.10;99.90
5901;DHT22;2976;49.764;9.796;2023-12-22T14:21:00;7.10;99.90
5901;DHT22;2976;49.764;9.796;2023-12-22T14:23:26;7.10;99.90
5901;DHT22;2976;49.764;9.796;2023-12-22T14:25:52;7.10;99.90
5901;DHT22;2976;49.764;9.796;2023-12-22T14:28:18;7.10;99.90
5901;DHT22;2976;49.764;9.796;2023-12-22T14:30:44;7.20;99.90
5901;DHT22;2976;49.764;9.796;2023-12-22T14:33:10;7.40;99.90
5901;DHT22;2976;49.764;9.796;2023-12-22T14:35:36;7.50;99.90
5901;DHT22;2976;49.764;9.796;2023-12-22T14:38:02;7.40;99.90
5901;DHT22;2976;49.764;9.796;2023-12-22T14:40:28;7.50;99.90
5901;DHT22;2976;49.764;9.796;2023-12-22T14:42:53;7.60;99.90
5901;DHT22;2976;49.764;9.796;2023-12-22T14:45:19;7.60;99.90
5901;DHT22;2976;49.764;9.796;2023-12-22T14:47:44;7.70;99.90
5901;DHT22;2976;49.764;9.796;2023-12-22T14:50:10;7.70;99.90
5901;DHT22;2976;49.764;9.796;2023-12-22T14:52:35;7.70;99.90
5901;DHT22;2976;49.764;9.796;2023-12-22T14:55:01;7.60;99.90
5901;DHT22;2976;49.764;9.796;2023-12-22T14:57:28;7.60;99.90
5901;DHT22;2976;49.764;9.796;2023-12-22T14:59:56;7.50;99.90
5901;DHT22;2976;49.764;9.796;2023-12-22T15:02:22;7.50;99.90
5901;DHT22;2976;49.764;9.796;2023-12-22T15:04:47;7.50;99.90
5901;DHT22;2976;49.764;9.796;2023-12-22T15:07:17;7.50;99.90
5901;DHT22;2976;49.764;9.796;2023-12-22T15:09:43;7.50;99.90
5901;DHT22;2976;49.764;9.796;2023-12-22T15:12:10;7.50;99.90
5901;DHT22;2976;49.764;9.796;2023-12-22T15:14:35;7.50;99.90
5901;DHT22;2976;49.764;9.796;2023-12-22T15:17:01;7.40;99.90
5901;DHT22;2976;49.764;9.796;2023-12-22T15:19:26;7.40;99.90
5901;DHT22;2976;49.764;9.796;2023-12-22T15:21:52;7.50;99.90
5901;DHT22;2976;49.764;9.796;2023-12-22T15:24:18;7.50;99.90
5901;DHT22;2976;49.764;9.796;2023-12-22T15:26:44;7.60;99.90
5901;DHT22;2976;49.764;9.796;2023-12-22T15:29:09;7.60;99.90
5901;DHT22;2976;49.764;9.796;2023-12-22T15:31:35;7.50;99.90
5901;DHT22;2976;49.764;9.796;2023-12-22T15:34:01;7.40;99.90
5901;DHT22;2976;49.764;9.796;2023-12-22T15:36:26;7.40;99.90
5901;DHT22;2976;49.764;9.796;2023-12-22T15:38:53;7.40;99.90
5901;DHT22;2976;49.764;9.796;2023-12-22T15:41:19;7.40;99.90
5901;DHT22;2976;49.764;9.796;2023-12-22T15:43:45;7.50;99.90
5901;DHT22;2976;49.764;9.796;2023-12-22T15:46:10;7.50;99.90
5901;DHT22;2976;49.764;9.796;2023-12-22T15:48:36;7.60;99.90
5901;DHT22;2976;49.764;9.796;2023-12-22T15:51:12;7.70;99.90
5901;DHT22;2976;49.764;9.796;2023-12-22T15:53:41;7.70;99.90
5901;DHT22;2976;49.764;9.796;2023-12-22T15:56:08;7.70;99.90
5901;DHT22;2976;49.764;9.796;2023-12-22T15:58:36;7.60;99.90
5901;DHT22;2976;49.764;9.796;2023-12-22T16:01:06;7.60;99.90
5901;DHT22;2976;49.764;9.796;2023-12-22T16:03:31;7.70;99.90
5901;DHT22;2976;49.764;9.796;2023-12-22T16:05:57;7.90;99.90
5901;DHT22;2976;49.764;9.796;2023-12-22T16:08:23;8.00;99.90
5901;DHT22;2976;49.764;9.796;2023-12-22T16:10:50;8.00;99.90
5901;DHT22;2976;49.764;9.796;2023-12-22T16:13:16;8.00;99.90
5901;DHT22;2976;49.764;9.796;2023-12-22T16:15:41;8.20;99.90
5901;DHT22;2976;49.764;9.796;2023-12-22T16:18:08;8.40;99.90
5901;DHT22;2976;49.764;9.796;2023-12-22T16:20:34;8.30;99.90